createdAt,value
2017-08-24T00:01:58.752Z,7.97
2017-08-24T00:04:25.348Z,7.83
2017-08-24T00:06:52.027Z,7.60
2017-08-24T00:09:18.318Z,7.30
2017-08-24T00:11:44.605Z,6.80
2017-08-24T00:14:11.293Z,8.23
2017-08-24T00:16:37.615Z,8.80
2017-08-24T00:19:04.915Z,8.20
2017-08-24T00:21:31.916Z,8.70
2017-08-24T00:23:58.224Z,8.20
2017-08-24T00:26:24.761Z,7.27
2017-08-24T00:28:51.099Z,7.40
2017-08-24T00:31:17.760Z,7.07
2017-08-24T00:33:44.137Z,7.17
2017-08-24T00:36:10.673Z,8.70
2017-08-24T00:38:36.974Z,7.60
2017-08-24T00:41:03.321Z,8.00
2017-08-24T00:43:30.678Z,9.23
2017-08-24T00:45:57.009Z,7.77
2017-08-24T00:48:23.330Z,8.00
2017-08-24T00:50:49.947Z,8.37
2017-08-24T00:53:16.465Z,8.53
2017-08-24T00:55:43.682Z,8.23
2017-08-24T00:58:10.031Z,9.10
2017-08-24T01:00:36.581Z,9.53
2017-08-24T01:03:02.894Z,9.57
2017-08-24T01:05:29.184Z,8.33
2017-08-24T01:07:55.517Z,8.97
2017-08-24T01:10:22.531Z,8.77
2017-08-24T01:12:48.811Z,9.37
2017-08-24T01:15:15.107Z,9.43
2017-08-24T01:17:41.559Z,8.63
2017-08-24T01:20:07.930Z,9.10
2017-08-24T01:22:34.892Z,9.67
2017-08-24T01:25:02.232Z,9.33
2017-08-24T01:27:29.560Z,10.17
2017-08-24T01:29:55.894Z,9.53
2017-08-24T01:32:22.241Z,9.80
2017-08-24T01:34:48.546Z,9.10
2017-08-24T01:37:14.861Z,10.10
2017-08-24T01:39:41.222Z,9.20
2017-08-24T01:42:07.593Z,10.80
2017-08-24T01:44:34.221Z,9.13
2017-08-24T01:47:01.145Z,8.53
2017-08-24T01:49:27.470Z,8.60
2017-08-24T01:51:54.129Z,8.50
2017-08-24T01:54:20.469Z,8.87
2017-08-24T01:56:46.774Z,9.00
2017-08-24T01:59:13.109Z,8.57
2017-08-24T02:01:39.411Z,9.93
2017-08-24T02:04:05.710Z,11.23
2017-08-24T02:06:32.017Z,11.70
2017-08-24T02:08:58.585Z,10.57
2017-08-24T02:11:25.737Z,9.43
2017-08-24T02:13:52.083Z,11.07
2017-08-24T02:16:18.673Z,11.30
2017-08-24T02:18:44.958Z,10.60
2017-08-24T02:21:11.273Z,9.67
2017-08-24T02:23:38.532Z,9.67
2017-08-24T02:26:04.812Z,9.67
2017-08-24T02:28:31.521Z,10.00
2017-08-24T02:30:57.801Z,11.07
2017-08-24T02:33:24.087Z,10.77
2017-08-24T02:35:50.416Z,10.87
2017-08-24T02:38:16.732Z,10.47
2017-08-24T02:40:43.280Z,11.17
2017-08-24T02:43:09.887Z,10.80
2017-08-24T02:45:36.178Z,11.43
2017-08-24T02:48:02.494Z,11.10
2017-08-24T02:50:28.783Z,11.50
2017-08-24T02:52:55.127Z,11.30
2017-08-24T02:55:21.419Z,10.10
2017-08-24T02:57:47.726Z,11.17
2017-08-24T03:00:14.073Z,10.97
2017-08-24T03:02:40.774Z,10.80
2017-08-24T03:05:07.045Z,12.50
2017-08-24T03:07:33.943Z,10.07
2017-08-24T03:10:00.866Z,11.10
2017-08-24T03:12:28.153Z,11.23
2017-08-24T03:14:54.433Z,14.23
2017-08-24T03:17:20.734Z,11.50
2017-08-24T03:19:47.031Z,12.03
2017-08-24T03:22:13.359Z,10.87
2017-08-24T03:24:39.673Z,12.13
2017-08-24T03:27:05.973Z,11.07
2017-08-24T03:29:32.559Z,12.17
2017-08-24T03:31:58.836Z,13.27
2017-08-24T03:34:25.124Z,12.20
2017-08-24T03:36:51.439Z,11.67
2017-08-24T03:39:17.730Z,12.57
2017-08-24T03:41:44.674Z,11.93
2017-08-24T03:44:11.269Z,12.20
2017-08-24T03:46:37.564Z,13.33
2017-08-24T03:49:03.862Z,11.70
2017-08-24T03:51:30.461Z,14.27
2017-08-24T03:53:56.757Z,15.20
2017-08-24T03:56:23.057Z,15.37
2017-08-24T03:58:49.375Z,16.50
2017-08-24T04:01:15.663Z,15.00
2017-08-24T04:03:41.958Z,16.27
2017-08-24T04:06:08.265Z,15.40
2017-08-24T04:08:34.585Z,19.53
2017-08-24T04:11:01.986Z,16.50
2017-08-24T04:13:28.320Z,15.40
2017-08-24T04:15:54.663Z,15.70
2017-08-24T04:18:21.219Z,14.63
2017-08-24T04:20:47.522Z,15.60
2017-08-24T04:23:14.741Z,13.73
2017-08-24T04:25:41.049Z,13.87
2017-08-24T04:28:07.389Z,15.00
2017-08-24T04:30:33.704Z,15.83
2017-08-24T04:33:00.006Z,14.07
2017-08-24T04:35:26.299Z,12.70
2017-08-24T04:37:52.625Z,11.87
2017-08-24T04:40:18.953Z,15.48
2017-08-24T04:42:45.298Z,13.70
2017-08-24T04:45:12.083Z,12.23
2017-08-24T04:47:38.398Z,12.60
2017-08-24T04:50:04.699Z,13.60
2017-08-24T04:52:31.013Z,12.60
2017-08-24T04:54:57.329Z,12.80
2017-08-24T04:57:23.627Z,15.05
2017-08-24T04:59:49.950Z,13.17
2017-08-24T05:02:16.520Z,13.95
2017-08-24T05:04:43.109Z,14.27
2017-08-24T05:07:09.388Z,15.30
2017-08-24T05:09:36.099Z,18.13
2017-08-24T05:12:02.474Z,17.53
2017-08-24T05:14:28.870Z,17.10
2017-08-24T05:16:55.158Z,19.53
2017-08-24T05:19:21.464Z,20.60
2017-08-24T05:21:48.270Z,23.67
2017-08-24T05:24:15.104Z,22.03
2017-08-24T05:26:41.396Z,19.10
2017-08-24T05:29:07.717Z,15.90
2017-08-24T05:31:34.030Z,15.70
2017-08-24T05:34:00.354Z,13.67
2017-08-24T05:36:26.621Z,13.83
2017-08-24T05:38:52.934Z,12.83
2017-08-24T05:41:19.231Z,14.37
2017-08-24T05:43:45.519Z,16.60
2017-08-24T05:46:11.825Z,14.73
2017-08-24T05:48:38.152Z,14.40
2017-08-24T05:51:04.425Z,18.53
2017-08-24T05:53:30.706Z,23.20
2017-08-24T05:55:57.039Z,31.50
2017-08-24T05:58:23.326Z,26.57
2017-08-24T06:00:49.662Z,30.50
2017-08-24T06:03:15.966Z,28.50
2017-08-24T06:05:42.318Z,26.77
2017-08-24T06:08:08.577Z,24.07
2017-08-24T06:10:35.143Z,23.00
2017-08-24T06:13:01.419Z,18.93
2017-08-24T06:15:27.693Z,18.67
2017-08-24T06:17:54.000Z,20.10
2017-08-24T06:20:20.284Z,20.53
2017-08-24T06:22:46.594Z,26.43
2017-08-24T06:25:12.922Z,40.30
2017-08-24T06:27:39.236Z,41.40
2017-08-24T06:30:05.553Z,27.13
2017-08-24T06:32:31.912Z,20.60
2017-08-24T06:34:58.252Z,18.60
2017-08-24T06:37:24.538Z,19.83
2017-08-24T06:39:50.849Z,18.03
2017-08-24T06:42:17.112Z,18.23
2017-08-24T06:44:43.401Z,17.90
2017-08-24T06:47:09.698Z,18.10
2017-08-24T06:49:36.370Z,16.83
2017-08-24T06:52:02.667Z,15.67
2017-08-24T06:54:29.026Z,15.60
2017-08-24T06:56:55.369Z,16.70
2017-08-24T06:59:21.662Z,14.40
2017-08-24T07:01:47.955Z,15.93
2017-08-24T07:04:14.260Z,14.13
2017-08-24T07:06:40.550Z,14.67
2017-08-24T07:09:06.810Z,14.83
2017-08-24T07:11:33.109Z,14.07
2017-08-24T07:13:59.385Z,14.10
2017-08-24T07:16:25.704Z,14.10
2017-08-24T07:18:52.005Z,14.33
2017-08-24T07:21:18.333Z,14.63
2017-08-24T07:23:44.656Z,13.53
2017-08-24T07:26:10.930Z,14.80
2017-08-24T07:28:37.438Z,14.90
2017-08-24T07:31:04.655Z,13.77
2017-08-24T07:33:30.962Z,14.30
2017-08-24T07:35:57.248Z,14.33
2017-08-24T07:38:23.780Z,15.53
2017-08-24T07:40:50.114Z,14.80
2017-08-24T07:43:18.290Z,14.53
2017-08-24T07:45:44.597Z,14.63
2017-08-24T07:48:10.920Z,15.30
2017-08-24T07:50:37.250Z,14.17
2017-08-24T07:53:03.565Z,14.30
2017-08-24T07:55:29.898Z,15.43
2017-08-24T07:57:56.177Z,14.00
2017-08-24T08:00:22.477Z,14.00
2017-08-24T08:02:48.801Z,14.10
2017-08-24T08:05:15.105Z,13.43
2017-08-24T08:07:41.400Z,13.47
2017-08-24T08:10:07.958Z,13.37
2017-08-24T08:12:34.276Z,13.43
2017-08-24T08:15:00.576Z,13.60
2017-08-24T08:17:26.939Z,13.10
2017-08-24T08:19:53.218Z,13.43
2017-08-24T08:22:19.536Z,13.37
2017-08-24T08:24:45.857Z,13.33
2017-08-24T08:27:12.162Z,13.97
2017-08-24T08:29:38.474Z,13.70
2017-08-24T08:32:04.768Z,13.50
2017-08-24T08:34:31.095Z,11.93
2017-08-24T08:36:57.678Z,13.17
2017-08-24T08:39:23.953Z,13.30
2017-08-24T08:41:50.590Z,11.33
2017-08-24T08:44:16.886Z,11.07
2017-08-24T08:46:43.157Z,12.70
2017-08-24T08:49:09.462Z,12.20
2017-08-24T08:51:35.767Z,14.00
2017-08-24T08:54:02.068Z,12.30
2017-08-24T08:56:28.379Z,11.93
2017-08-24T08:58:54.714Z,11.37
2017-08-24T09:01:21.018Z,12.17
2017-08-24T09:03:47.691Z,11.53
2017-08-24T09:06:14.014Z,10.90
2017-08-24T09:08:40.289Z,11.80
2017-08-24T09:11:06.576Z,11.60
2017-08-24T09:13:33.164Z,11.70
2017-08-24T09:15:59.465Z,11.97
2017-08-24T09:18:26.124Z,10.77
2017-08-24T09:20:52.437Z,9.80
2017-08-24T09:23:18.719Z,11.80
2017-08-24T09:25:45.030Z,13.70
2017-08-24T09:28:12.084Z,12.00
2017-08-24T09:30:38.396Z,10.87
2017-08-24T09:33:04.677Z,10.53
2017-08-24T09:35:31.343Z,9.47
2017-08-24T09:37:57.694Z,8.87
2017-08-24T09:40:23.966Z,9.97
2017-08-24T09:42:50.306Z,9.73
2017-08-24T09:45:16.639Z,8.73
2017-08-24T09:47:42.959Z,9.87
2017-08-24T09:50:09.281Z,8.97
2017-08-24T09:52:35.592Z,9.77
2017-08-24T09:55:01.899Z,10.13
2017-08-24T09:57:28.196Z,9.47
2017-08-24T09:59:54.476Z,8.17
2017-08-24T10:02:20.826Z,8.07
2017-08-24T10:04:47.202Z,8.60
2017-08-24T10:07:13.511Z,9.97
2017-08-24T10:09:39.848Z,8.43
2017-08-24T10:12:06.198Z,8.33
2017-08-24T10:14:32.568Z,10.07
2017-08-24T10:16:58.963Z,8.47
2017-08-24T10:19:25.347Z,8.63
2017-08-24T10:21:51.627Z,7.67
2017-08-24T10:24:17.937Z,8.00
2017-08-24T10:26:44.266Z,7.87
2017-08-24T10:29:10.581Z,7.23
2017-08-24T10:31:37.164Z,8.57
2017-08-24T10:34:03.472Z,8.20
2017-08-24T10:36:29.767Z,8.83
2017-08-24T10:38:56.060Z,7.80
2017-08-24T10:41:22.366Z,9.27
2017-08-24T10:43:48.716Z,7.57
2017-08-24T10:46:15.034Z,8.60
2017-08-24T10:48:41.339Z,6.87
2017-08-24T10:51:07.936Z,7.60
2017-08-24T10:53:34.222Z,7.93
2017-08-24T10:56:00.503Z,7.70
2017-08-24T10:58:26.826Z,7.70
2017-08-24T11:00:53.186Z,7.30
2017-08-24T11:03:19.513Z,7.83
2017-08-24T11:05:45.815Z,7.20
2017-08-24T11:08:12.126Z,7.17
2017-08-24T11:10:38.402Z,8.03
2017-08-24T11:13:04.721Z,6.27
2017-08-24T11:15:31.008Z,6.70
2017-08-24T11:17:57.638Z,7.00
2017-08-24T11:20:23.957Z,7.27
2017-08-24T11:22:50.236Z,7.13
2017-08-24T11:25:16.562Z,6.90
2017-08-24T11:27:42.849Z,7.37
2017-08-24T11:30:09.772Z,7.30
2017-08-24T11:32:36.069Z,6.73
2017-08-24T11:35:02.373Z,6.30
2017-08-24T11:37:28.669Z,7.10
2017-08-24T11:39:54.960Z,7.17
2017-08-24T11:42:21.237Z,7.17
2017-08-24T11:44:47.555Z,7.20
2017-08-24T11:47:13.853Z,7.20
2017-08-24T11:49:40.145Z,6.77
2017-08-24T11:52:06.548Z,6.83
2017-08-24T11:54:32.821Z,7.37
2017-08-24T11:56:59.366Z,6.60
2017-08-24T11:59:25.701Z,6.70
2017-08-24T12:01:52.014Z,5.63
2017-08-24T12:04:19.378Z,5.57
2017-08-24T12:06:45.707Z,8.63
2017-08-24T12:09:12.003Z,6.03
2017-08-24T12:11:38.309Z,6.33
2017-08-24T12:14:04.646Z,6.20
2017-08-24T12:16:30.990Z,6.07
2017-08-24T12:18:57.293Z,6.60
2017-08-24T12:21:27.581Z,6.20
2017-08-24T12:24:00.375Z,5.60
2017-08-24T12:26:28.076Z,6.30
2017-08-24T12:28:54.403Z,5.30
2017-08-24T12:31:20.684Z,5.87
2017-08-24T12:33:47.044Z,5.53
2017-08-24T12:36:13.372Z,5.50
2017-08-24T12:38:39.714Z,6.20
2017-08-24T12:41:06.007Z,5.13
2017-08-24T12:43:32.613Z,4.67
2017-08-24T12:45:58.883Z,4.80
2017-08-24T12:48:25.166Z,5.10
2017-08-24T12:50:51.503Z,4.47
2017-08-24T12:53:17.839Z,5.30
2017-08-24T12:55:44.148Z,4.63
2017-08-24T12:58:10.439Z,4.87
2017-08-24T13:00:36.777Z,4.87
2017-08-24T13:03:03.085Z,5.03
2017-08-24T13:05:29.411Z,5.30
2017-08-24T13:07:55.741Z,5.30
2017-08-24T13:10:22.099Z,4.67
2017-08-24T13:12:48.381Z,5.80
2017-08-24T13:15:14.667Z,5.90
2017-08-24T13:17:40.970Z,4.47
2017-08-24T13:20:07.285Z,5.05
2017-08-24T13:22:33.579Z,4.95
2017-08-24T13:24:59.873Z,5.82
2017-08-24T13:27:26.145Z,5.75
2017-08-24T13:29:52.410Z,4.97
2017-08-24T13:32:18.783Z,5.05
2017-08-24T13:34:45.064Z,5.00
2017-08-24T13:37:11.341Z,5.05
2017-08-24T13:39:37.645Z,5.28
2017-08-24T13:42:03.990Z,5.03
2017-08-24T13:44:30.294Z,6.20
2017-08-24T13:46:56.575Z,6.47
2017-08-24T13:49:22.894Z,5.50
2017-08-24T13:51:49.154Z,5.35
2017-08-24T13:54:15.457Z,5.45
2017-08-24T13:56:41.755Z,5.20
2017-08-24T13:59:08.075Z,5.15
2017-08-24T14:01:34.375Z,5.30
2017-08-24T14:04:00.676Z,5.12
2017-08-24T14:06:26.982Z,4.75
2017-08-24T14:08:53.270Z,4.45
2017-08-24T14:11:19.584Z,4.62
2017-08-24T14:13:45.869Z,4.70
2017-08-24T14:16:12.153Z,4.67
2017-08-24T14:18:38.459Z,4.50
2017-08-24T14:21:05.191Z,4.93
2017-08-24T14:23:31.504Z,4.30
2017-08-24T14:25:57.789Z,4.40
2017-08-24T14:28:24.126Z,4.30
2017-08-24T14:30:50.457Z,3.57
2017-08-24T14:33:16.770Z,4.27
2017-08-24T14:35:43.050Z,5.23
2017-08-24T14:38:09.347Z,3.87
2017-08-24T14:40:35.628Z,4.10
2017-08-24T14:43:01.983Z,3.27
2017-08-24T14:45:28.295Z,4.03
2017-08-24T14:47:55.400Z,4.10
2017-08-24T14:50:21.733Z,4.60
2017-08-24T14:52:48.001Z,4.40
2017-08-24T14:55:14.652Z,3.90
2017-08-24T14:57:40.945Z,4.67
2017-08-24T15:00:07.243Z,4.90
2017-08-24T15:02:33.561Z,4.30
2017-08-24T15:04:59.882Z,4.60
2017-08-24T15:07:26.152Z,4.70
2017-08-24T15:09:52.482Z,4.80
2017-08-24T15:12:18.797Z,4.60
2017-08-24T15:14:45.127Z,4.57
2017-08-24T15:17:11.441Z,5.13
2017-08-24T15:19:37.749Z,4.97
2017-08-24T15:22:04.124Z,5.33
2017-08-24T15:24:30.418Z,4.93
2017-08-24T15:26:56.761Z,4.87
2017-08-24T15:29:23.069Z,4.17
2017-08-24T15:31:49.378Z,5.03
2017-08-24T15:34:15.937Z,5.27
2017-08-24T15:36:42.513Z,5.80
2017-08-24T15:39:08.872Z,6.40
2017-08-24T15:41:35.176Z,7.63
2017-08-24T15:44:02.131Z,6.27
2017-08-24T15:46:28.469Z,6.20
2017-08-24T15:48:54.796Z,6.87
2017-08-24T15:51:21.093Z,8.50
2017-08-24T15:53:47.414Z,6.17
2017-08-24T15:56:13.703Z,6.00
2017-08-24T15:58:40.325Z,6.20
2017-08-24T16:01:06.674Z,7.57
2017-08-24T16:03:33.333Z,5.80
2017-08-24T16:05:59.644Z,8.30
2017-08-24T16:08:26.043Z,7.37
2017-08-24T16:10:52.361Z,6.57
2017-08-24T16:13:18.679Z,7.30
2017-08-24T16:15:45.089Z,7.43
2017-08-24T16:18:11.451Z,8.70
2017-08-24T16:20:37.775Z,7.83
2017-08-24T16:23:04.326Z,6.93
2017-08-24T16:25:31.023Z,7.30
2017-08-24T16:27:57.389Z,7.90
2017-08-24T16:30:23.764Z,6.63
2017-08-24T16:32:51.071Z,7.63
2017-08-24T16:35:17.396Z,7.10
2017-08-24T16:37:43.732Z,6.87
2017-08-24T16:40:10.044Z,7.27
2017-08-24T16:42:36.334Z,8.87
2017-08-24T16:45:02.643Z,7.90
2017-08-24T16:47:28.939Z,7.57
2017-08-24T16:49:55.253Z,8.33
2017-08-24T16:52:21.524Z,8.30
2017-08-24T16:54:47.833Z,8.90
2017-08-24T16:57:14.161Z,8.47
2017-08-24T16:59:40.522Z,7.77
2017-08-24T17:02:06.811Z,7.30
2017-08-24T17:04:33.096Z,10.20
2017-08-24T17:06:59.370Z,9.90
2017-08-24T17:09:25.691Z,7.47
2017-08-24T17:11:51.997Z,6.87
2017-08-24T17:14:18.369Z,7.40
2017-08-24T17:16:44.733Z,7.77
2017-08-24T17:19:11.005Z,7.53
2017-08-24T17:21:37.300Z,8.50
2017-08-24T17:24:03.577Z,6.63
2017-08-24T17:26:29.865Z,7.60
2017-08-24T17:28:56.157Z,7.60
2017-08-24T17:31:22.496Z,7.70
2017-08-24T17:33:48.762Z,7.70
2017-08-24T17:36:15.100Z,8.10
2017-08-24T17:38:41.408Z,8.17
2017-08-24T17:41:08.182Z,8.00
2017-08-24T17:43:34.576Z,13.03
2017-08-24T17:46:00.922Z,16.00
2017-08-24T17:48:27.263Z,8.60
2017-08-24T17:50:53.616Z,5.87
2017-08-24T17:53:19.942Z,4.70
2017-08-24T17:55:46.278Z,5.53
2017-08-24T17:58:12.623Z,6.30
2017-08-24T18:00:38.982Z,4.50
2017-08-24T18:03:05.347Z,5.03
2017-08-24T18:05:31.641Z,6.20
2017-08-24T18:07:57.950Z,5.03
2017-08-24T18:10:24.356Z,5.23
2017-08-24T18:12:51.008Z,4.23
2017-08-24T18:15:17.304Z,4.67
2017-08-24T18:17:43.597Z,4.77
2017-08-24T18:20:10.885Z,4.27
2017-08-24T18:22:37.197Z,4.80
2017-08-24T18:25:04.161Z,6.20
2017-08-24T18:27:30.464Z,5.23
2017-08-24T18:29:56.789Z,4.73
2017-08-24T18:32:23.580Z,4.30
2017-08-24T18:34:50.164Z,7.00
2017-08-24T18:37:17.382Z,4.27
2017-08-24T18:39:43.680Z,4.87
2017-08-24T18:42:10.245Z,6.43
2017-08-24T18:44:36.537Z,4.63
2017-08-24T18:47:02.812Z,5.47
2017-08-24T18:49:29.134Z,5.27
2017-08-24T18:51:55.463Z,7.87
2017-08-24T18:54:21.845Z,4.50
2017-08-24T18:56:48.474Z,4.73
2017-08-24T18:59:15.900Z,4.83
2017-08-24T19:01:42.235Z,5.17
2017-08-24T19:04:09.519Z,5.40
2017-08-24T19:06:35.867Z,6.27
2017-08-24T19:09:03.135Z,5.70
2017-08-24T19:11:29.499Z,5.80
2017-08-24T19:13:55.822Z,6.13
2017-08-24T19:16:22.147Z,6.87
2017-08-24T19:18:48.737Z,6.53
2017-08-24T19:21:15.332Z,6.63
2017-08-24T19:23:41.672Z,7.90
2017-08-24T19:26:08.301Z,8.77
2017-08-24T19:28:34.623Z,5.30
2017-08-24T19:31:01.846Z,8.97
2017-08-24T19:33:28.586Z,7.30
2017-08-24T19:35:54.950Z,5.37
2017-08-24T19:38:21.312Z,6.67
2017-08-24T19:40:48.052Z,5.53
2017-08-24T19:43:14.374Z,5.77
2017-08-24T19:45:41.127Z,6.07
2017-08-24T19:48:07.469Z,7.87
2017-08-24T19:50:33.900Z,6.80
2017-08-24T19:53:01.680Z,9.33
2017-08-24T19:55:29.975Z,6.80
2017-08-24T19:57:57.188Z,6.10
2017-08-24T20:00:23.570Z,5.73
2017-08-24T20:02:49.932Z,6.00
2017-08-24T20:05:16.270Z,6.47
2017-08-24T20:07:42.621Z,5.00
2017-08-24T20:10:09.066Z,5.93
2017-08-24T20:12:35.724Z,5.70
2017-08-24T20:15:02.088Z,5.90
2017-08-24T20:17:29.759Z,5.30
2017-08-24T20:19:57.506Z,5.37
2017-08-24T20:22:23.884Z,4.70
2017-08-24T20:24:50.676Z,5.07
2017-08-24T20:27:17.048Z,6.17
2017-08-24T20:29:44.161Z,6.23
2017-08-24T20:32:10.606Z,6.10
2017-08-24T20:34:37.032Z,5.70
2017-08-24T20:37:04.352Z,7.00
2017-08-24T20:39:31.663Z,5.10
2017-08-24T20:41:58.833Z,5.57
2017-08-24T20:44:26.060Z,6.03
2017-08-24T20:46:53.156Z,5.97
2017-08-24T20:49:19.541Z,5.77
2017-08-24T20:51:46.833Z,6.10
2017-08-24T20:54:13.154Z,5.80
2017-08-24T20:56:39.451Z,5.03
2017-08-24T20:59:05.818Z,6.07
2017-08-24T21:01:32.150Z,6.10
2017-08-24T21:03:58.913Z,6.60
2017-08-24T21:06:26.458Z,5.83
2017-08-24T21:08:53.746Z,6.10
2017-08-24T21:11:20.081Z,5.93
2017-08-24T21:13:46.628Z,5.80
2017-08-24T21:16:12.980Z,6.90
2017-08-24T21:18:39.616Z,5.53
2017-08-24T21:21:05.980Z,5.90
2017-08-24T21:23:32.291Z,5.23
2017-08-24T21:25:58.913Z,6.17
2017-08-24T21:28:25.221Z,6.70
2017-08-24T21:30:51.557Z,4.83
2017-08-24T21:33:18.168Z,6.57
2017-08-24T21:35:44.794Z,7.10
2017-08-24T21:38:11.166Z,5.23
2017-08-24T21:40:37.449Z,4.90
2017-08-24T21:43:03.743Z,5.03
2017-08-24T21:45:31.096Z,5.63
2017-08-24T21:47:57.435Z,5.30
2017-08-24T21:50:23.731Z,6.90
2017-08-24T21:52:50.045Z,6.37
2017-08-24T21:55:16.351Z,6.13
2017-08-24T21:57:43.570Z,6.10
2017-08-24T22:00:10.137Z,7.20
2017-08-24T22:02:36.405Z,6.77
2017-08-24T22:05:02.734Z,5.00
2017-08-24T22:07:29.005Z,5.37
2017-08-24T22:09:56.081Z,5.23
2017-08-24T22:12:22.399Z,5.13
2017-08-24T22:14:48.695Z,5.80
2017-08-24T22:17:15.090Z,6.37
2017-08-24T22:19:41.723Z,5.50
2017-08-24T22:22:08.062Z,4.93
2017-08-24T22:24:34.400Z,5.27
2017-08-24T22:27:00.723Z,6.30
2017-08-24T22:29:27.793Z,7.20
2017-08-24T22:31:55.159Z,5.87
2017-08-24T22:34:21.480Z,5.97
2017-08-24T22:36:48.054Z,5.80
2017-08-24T22:39:14.846Z,5.23
2017-08-24T22:41:42.269Z,5.53
2017-08-24T22:44:10.710Z,5.70
2017-08-24T22:46:37.608Z,5.57
2017-08-24T22:49:04.014Z,4.97
2017-08-24T22:51:30.308Z,5.20
2017-08-24T22:54:02.570Z,4.80
2017-08-24T22:56:35.770Z,5.17
2017-08-24T22:59:08.052Z,5.60
2017-08-24T23:01:40.281Z,5.60
2017-08-24T23:04:06.623Z,5.30
2017-08-24T23:06:32.945Z,5.77
2017-08-24T23:08:59.283Z,5.60
2017-08-24T23:11:25.616Z,5.40
2017-08-24T23:13:53.097Z,5.67
2017-08-24T23:16:19.440Z,6.03
2017-08-24T23:18:46.545Z,4.97
2017-08-24T23:21:12.870Z,4.80
2017-08-24T23:23:39.195Z,5.83
2017-08-24T23:26:06.009Z,5.90
2017-08-24T23:28:32.316Z,5.23
2017-08-24T23:30:58.669Z,4.67
2017-08-24T23:33:25.052Z,5.23
2017-08-24T23:35:51.746Z,4.33
2017-08-24T23:38:18.056Z,5.90
2017-08-24T23:40:44.360Z,5.67
2017-08-24T23:43:10.666Z,5.67
2017-08-24T23:45:36.995Z,5.80
2017-08-24T23:48:03.339Z,6.27
2017-08-24T23:50:29.680Z,8.73
2017-08-24T23:52:56.020Z,5.60
2017-08-24T23:55:22.342Z,5.50
2017-08-24T23:57:48.722Z,5.80
